sensor_id;sensor_type;location;lat;lon;timestamp;temperature;humidity
21582;DHT22;10952;50.836;4.348;2023-03-29T00:00:07;10.30;99.90
21582;DHT22;10952;50.836;4.348;2023-03-29T00:02:35;10.30;99.90
21582;DHT22;10952;50.836;4.348;2023-03-29T00:05:01;10.40;99.90
21582;DHT22;10952;50.836;4.348;2023-03-29T00:07:30;10.40;99.90
21582;DHT22;10952;50.836;4.348;2023-03-29T00:09:58;10.40;99.90
21582;DHT22;10952;50.836;4.348;2023-03-29T00:12:24;10.50;99.90
21582;DHT22;10952;50.836;4.348;2023-03-29T00:14:50;10.50;99.90
21582;DHT22;10952;50.836;4.348;2023-03-29T00:17:16;10.40;99.90
21582;DHT22;10952;50.836;4.348;2023-03-29T00:19:43;10.40;99.90
21582;DHT22;10952;50.836;4.348;2023-03-29T00:22:09;10.50;99.90
21582;DHT22;10952;50.836;4.348;2023-03-29T00:24:34;10.30;99.90
21582;DHT22;10952;50.836;4.348;2023-03-29T00:27:00;10.30;99.90
21582;DHT22;10952;50.836;4.348;2023-03-29T00:29:26;10.40;99.90
21582;DHT22;10952;50.836;4.348;2023-03-29T00:31:52;10.40;99.90
21582;DHT22;10952;50.836;4.348;2023-03-29T00:34:22;10.40;99.90
21582;DHT22;10952;50.836;4.348;2023-03-29T00:36:48;10.40;99.90
21582;DHT22;10952;50.836;4.348;2023-03-29T00:39:19;10.50;99.90
21582;DHT22;10952;50.836;4.348;2023-03-29T00:41:46;10.50;99.90
21582;DHT22;10952;50.836;4.348;2023-03-29T00:47:15;10.60;99.90
21582;DHT22;10952;50.836;4.348;2023-03-29T00:49:44;10.60;99.90
21582;DHT22;10952;50.836;4.348;2023-03-29T00:52:11;10.50;99.90
21582;DHT22;10952;50.836;4.348;2023-03-29T00:54:39;10.50;99.90
21582;DHT22;10952;50.836;4.348;2023-03-29T00:57:08;10.50;99.90
21582;DHT22;10952;50.836;4.348;2023-03-29T00:59:34;10.40;99.90
21582;DHT22;10952;50.836;4.348;2023-03-29T01:02:04;10.40;99.90
21582;DHT22;10952;50.836;4.348;2023-03-29T01:04:47;10.60;99.90
21582;DHT22;10952;50.836;4.348;2023-03-29T01:07:32;10.60;99.90
21582;DHT22;10952;50.836;4.348;2023-03-29T01:10:05;10.60;99.90
21582;DHT22;10952;50.836;4.348;2023-03-29T01:12:37;10.70;99.90
21582;DHT22;10952;50.836;4.348;2023-03-29T01:15:12;10.60;99.90
21582;DHT22;10952;50.836;4.348;2023-03-29T01:17:39;10.60;99.90
21582;DHT22;10952;50.836;4.348;2023-03-29T01:20:14;10.60;99.90
21582;DHT22;10952;50.836;4.348;2023-03-29T01:26:01;10.70;99.90
21582;DHT22;10952;50.836;4.348;2023-03-29T01:28:34;10.70;99.90
21582;DHT22;10952;50.836;4.348;2023-03-29T01:31:02;10.70;99.90
21582;DHT22;10952;50.836;4.348;2023-03-29T01:33:37;10.70;99.90
21582;DHT22;10952;50.836;4.348;2023-03-29T01:38:45;10.80;99.90
21582;DHT22;10952;50.836;4.348;2023-03-29T01:41:12;10.70;99.90
21582;DHT22;10952;50.836;4.348;2023-03-29T01:46:30;10.70;99.90
21582;DHT22;10952;50.836;4.348;2023-03-29T01:49:15;10.70;99.90
21582;DHT22;10952;50.836;4.348;2023-03-29T01:51:50;10.80;99.90
21582;DHT22;10952;50.836;4.348;2023-03-29T01:54:30;10.70;99.90
21582;DHT22;10952;50.836;4.348;2023-03-29T01:56:58;10.70;99.90
21582;DHT22;10952;50.836;4.348;2023-03-29T01:59:27;10.70;99.90
21582;DHT22;10952;50.836;4.348;2023-03-29T02:01:58;10.80;99.90
21582;DHT22;10952;50.836;4.348;2023-03-29T02:04:34;10.80;99.90
21582;DHT22;10952;50.836;4.348;2023-03-29T02:07:02;10.70;99.90
21582;DHT22;10952;50.836;4.348;2023-03-29T02:09:29;10.70;99.90
21582;DHT22;10952;50.836;4.348;2023-03-29T02:11:59;10.70;99.90
21582;DHT22;10952;50.836;4.348;2023-03-29T02:14:25;10.80;99.90
21582;DHT22;10952;50.836;4.348;2023-03-29T02:16:52;10.80;99.90
21582;DHT22;10952;50.836;4.348;2023-03-29T02:19:18;10.80;99.90
21582;DHT22;10952;50.836;4.348;2023-03-29T02:22:06;10.80;99.90
21582;DHT22;10952;50.836;4.348;2023-03-29T02:24:35;10.80;99.90
21582;DHT22;10952;50.836;4.348;2023-03-29T02:27:01;10.90;99.90
21582;DHT22;10952;50.836;4.348;2023-03-29T02:29:27;10.80;99.90
21582;DHT22;10952;50.836;4.348;2023-03-29T02:32:01;10.80;99.90
21582;DHT22;10952;50.836;4.348;2023-03-29T02:34:34;10.90;99.90
21582;DHT22;10952;50.836;4.348;2023-03-29T02:37:05;10.80;99.90
21582;DHT22;10952;50.836;4.348;2023-03-29T02:39:34;10.90;99.90
21582;DHT22;10952;50.836;4.348;2023-03-29T02:42:02;10.80;99.90
21582;DHT22;10952;50.836;4.348;2023-03-29T02:44:31;10.90;99.90
21582;DHT22;10952;50.836;4.348;2023-03-29T02:47:02;11.10;99.90
21582;DHT22;10952;50.836;4.348;2023-03-29T02:49:28;11.10;99.90
21582;DHT22;10952;50.836;4.348;2023-03-29T02:51:56;11.00;99.90
21582;DHT22;10952;50.836;4.348;2023-03-29T02:54:28;11.00;99.90
21582;DHT22;10952;50.836;4.348;2023-03-29T02:57:00;10.90;99.90
21582;DHT22;10952;50.836;4.348;2023-03-29T02:59:29;10.90;99.90
21582;DHT22;10952;50.836;4.348;2023-03-29T03:01:55;10.90;99.90
21582;DHT22;10952;50.836;4.348;2023-03-29T03:04:21;11.00;99.90
21582;DHT22;10952;50.836;4.348;2023-03-29T03:06:47;11.00;99.90
21582;DHT22;10952;50.836;4.348;2023-03-29T03:09:13;11.10;99.90
21582;DHT22;10952;50.836;4.348;2023-03-29T03:11:39;11.10;99.90
21582;DHT22;10952;50.836;4.348;2023-03-29T03:14:04;11.10;99.90
21582;DHT22;10952;50.836;4.348;2023-03-29T03:16:32;11.00;99.90
21582;DHT22;10952;50.836;4.348;2023-03-29T03:18:58;11.00;99.90
21582;DHT22;10952;50.836;4.348;2023-03-29T03:21:23;11.00;99.90
21582;DHT22;10952;50.836;4.348;2023-03-29T03:23:50;11.10;99.90
21582;DHT22;10952;50.836;4.348;2023-03-29T03:26:16;11.10;99.90
21582;DHT22;10952;50.836;4.348;2023-03-29T03:28:42;11.10;99.90
21582;DHT22;10952;50.836;4.348;2023-03-29T03:31:10;11.00;99.90
21582;DHT22;10952;50.836;4.348;2023-03-29T03:33:36;11.00;99.90
21582;DHT22;10952;50.836;4.348;2023-03-29T03:36:01;11.00;99.90
21582;DHT22;10952;50.836;4.348;2023-03-29T03:38:30;11.10;99.90
21582;DHT22;10952;50.836;4.348;2023-03-29T03:40:56;11.00;99.90
21582;DHT22;10952;50.836;4.348;2023-03-29T03:43:22;11.00;99.90
21582;DHT22;10952;50.836;4.348;2023-03-29T03:45:47;11.00;99.90
21582;DHT22;10952;50.836;4.348;2023-03-29T03:48:13;11.00;99.90
21582;DHT22;10952;50.836;4.348;2023-03-29T03:50:39;11.00;99.90
21582;DHT22;10952;50.836;4.348;2023-03-29T03:53:05;11.00;99.90
21582;DHT22;10952;50.836;4.348;2023-03-29T03:55:31;11.00;99.90
21582;DHT22;10952;50.836;4.348;2023-03-29T03:57:58;10.90;99.90
21582;DHT22;10952;50.836;4.348;2023-03-29T04:00:24;11.00;99.90
21582;DHT22;10952;50.836;4.348;2023-03-29T04:02:51;11.00;99.90
21582;DHT22;10952;50.836;4.348;2023-03-29T04:05:18;11.00;99.90
21582;DHT22;10952;50.836;4.348;2023-03-29T04:07:44;11.00;99.90
21582;DHT22;10952;50.836;4.348;2023-03-29T04:10:10;10.90;99.90
21582;DHT22;10952;50.836;4.348;2023-03-29T04:12:36;10.80;99.90
21582;DHT22;10952;50.836;4.348;2023-03-29T04:15:02;10.70;99.90
21582;DHT22;10952;50.836;4.348;2023-03-29T04:17:28;10.70;99.90
21582;DHT22;10952;50.836;4.348;2023-03-29T04:19:54;10.60;99.90
21582;DHT22;10952;50.836;4.348;2023-03-29T04:22:20;10.70;99.90
21582;DHT22;10952;50.836;4.348;2023-03-29T04:24:45;10.80;99.90
21582;DHT22;10952;50.836;4.348;2023-03-29T04:27:11;10.80;99.90
21582;DHT22;10952;50.836;4.348;2023-03-29T04:29:36;10.80;99.90
21582;DHT22;10952;50.836;4.348;2023-03-29T04:32:02;10.70;99.90
21582;DHT22;10952;50.836;4.348;2023-03-29T04:34:27;10.70;99.90
21582;DHT22;10952;50.836;4.348;2023-03-29T04:36:53;10.70;99.90
21582;DHT22;10952;50.836;4.348;2023-03-29T04:39:19;10.70;99.90
21582;DHT22;10952;50.836;4.348;2023-03-29T04:41:44;10.70;99.90
21582;DHT22;10952;50.836;4.348;2023-03-29T04:44:10;10.60;99.90
21582;DHT22;10952;50.836;4.348;2023-03-29T04:46:36;10.70;99.90
21582;DHT22;10952;50.836;4.348;2023-03-29T04:49:05;10.60;99.90
21582;DHT22;10952;50.836;4.348;2023-03-29T04:51:31;10.70;99.90
21582;DHT22;10952;50.836;4.348;2023-03-29T04:53:57;10.70;99.90
21582;DHT22;10952;50.836;4.348;2023-03-29T04:56:23;10.80;99.90
21582;DHT22;10952;50.836;4.348;2023-03-29T04:58:49;10.80;99.90
21582;DHT22;10952;50.836;4.348;2023-03-29T05:01:15;10.90;99.90
21582;DHT22;10952;50.836;4.348;2023-03-29T05:03:41;10.90;99.90
21582;DHT22;10952;50.836;4.348;2023-03-29T05:06:09;10.90;99.90
21582;DHT22;10952;50.836;4.348;2023-03-29T05:08:37;10.90;99.90
21582;DHT22;10952;50.836;4.348;2023-03-29T05:11:05;11.00;99.90
21582;DHT22;10952;50.836;4.348;2023-03-29T05:13:32;11.00;99.90
21582;DHT22;10952;50.836;4.348;2023-03-29T05:15:57;11.00;99.90
21582;DHT22;10952;50.836;4.348;2023-03-29T05:18:25;11.00;99.90
21582;DHT22;10952;50.836;4.348;2023-03-29T05:20:51;11.00;99.90
21582;DHT22;10952;50.836;4.348;2023-03-29T05:23:18;11.00;99.90
21582;DHT22;10952;50.836;4.348;2023-03-29T05:25:46;11.00;99.90
21582;DHT22;10952;50.836;4.348;2023-03-29T05:28:13;11.00;99.90
21582;DHT22;10952;50.836;4.348;2023-03-29T05:30:39;11.00;99.90
21582;DHT22;10952;50.836;4.348;2023-03-29T05:33:05;11.00;99.90
21582;DHT22;10952;50.836;4.348;2023-03-29T05:35:31;11.10;99.90
21582;DHT22;10952;50.836;4.348;2023-03-29T05:37:57;11.10;99.90
21582;DHT22;10952;50.836;4.348;2023-03-29T05:40:23;11.10;99.90
21582;DHT22;10952;50.836;4.348;2023-03-29T05:42:51;11.10;99.90
21582;DHT22;10952;50.836;4.348;2023-03-29T05:45:18;11.10;99.90
21582;DHT22;10952;50.836;4.348;2023-03-29T05:47:43;11.10;99.90
21582;DHT22;10952;50.836;4.348;2023-03-29T05:50:09;11.10;99.90
21582;DHT22;10952;50.836;4.348;2023-03-29T05:52:35;11.10;99.90
21582;DHT22;10952;50.836;4.348;2023-03-29T05:55:05;11.10;99.90
21582;DHT22;10952;50.836;4.348;2023-03-29T05:57:34;11.20;99.90
21582;DHT22;10952;50.836;4.348;2023-03-29T06:00:01;11.20;99.90
21582;DHT22;10952;50.836;4.348;2023-03-29T06:02:41;11.20;99.90
21582;DHT22;10952;50.836;4.348;2023-03-29T06:05:07;11.20;99.90
21582;DHT22;10952;50.836;4.348;2023-03-29T06:07:33;11.30;99.90
21582;DHT22;10952;50.836;4.348;2023-03-29T06:09:59;11.30;99.90
21582;DHT22;10952;50.836;4.348;2023-03-29T06:12:25;11.40;99.90
21582;DHT22;10952;50.836;4.348;2023-03-29T06:14:50;11.40;99.90
21582;DHT22;10952;50.836;4.348;2023-03-29T06:17:16;11.40;99.90
21582;DHT22;10952;50.836;4.348;2023-03-29T06:19:41;11.40;99.90
21582;DHT22;10952;50.836;4.348;2023-03-29T06:22:08;11.50;99.90
21582;DHT22;10952;50.836;4.348;2023-03-29T06:24:34;11.50;99.90
21582;DHT22;10952;50.836;4.348;2023-03-29T06:27:00;11.50;99.90
21582;DHT22;10952;50.836;4.348;2023-03-29T06:29:25;11.60;99.90
21582;DHT22;10952;50.836;4.348;2023-03-29T06:31:53;11.60;99.90
21582;DHT22;10952;50.836;4.348;2023-03-29T06:34:18;11.60;99.90
21582;DHT22;10952;50.836;4.348;2023-03-29T06:36:45;11.70;99.90
21582;DHT22;10952;50.836;4.348;2023-03-29T06:39:10;11.70;99.90
21582;DHT22;10952;50.836;4.348;2023-03-29T06:41:36;11.70;99.90
21582;DHT22;10952;50.836;4.348;2023-03-29T06:44:03;11.70;99.90
21582;DHT22;10952;50.836;4.348;2023-03-29T06:46:28;11.70;99.90
21582;DHT22;10952;50.836;4.348;2023-03-29T06:48:54;11.80;99.90
21582;DHT22;10952;50.836;4.348;2023-03-29T06:51:20;11.90;99.90
21582;DHT22;10952;50.836;4.348;2023-03-29T06:53:46;11.90;99.90
21582;DHT22;10952;50.836;4.348;2023-03-29T06:56:12;12.00;99.90
21582;DHT22;10952;50.836;4.348;2023-03-29T06:58:37;12.00;99.90
21582;DHT22;10952;50.836;4.348;2023-03-29T07:01:03;12.10;99.90
21582;DHT22;10952;50.836;4.348;2023-03-29T07:03:29;12.00;99.90
21582;DHT22;10952;50.836;4.348;2023-03-29T07:06:02;12.20;99.90
21582;DHT22;10952;50.836;4.348;2023-03-29T07:08:37;12.20;99.90
21582;DHT22;10952;50.836;4.348;2023-03-29T07:11:12;12.30;99.90
21582;DHT22;10952;50.836;4.348;2023-03-29T07:13:39;12.30;99.90
21582;DHT22;10952;50.836;4.348;2023-03-29T07:16:07;12.20;99.90
21582;DHT22;10952;50.836;4.348;2023-03-29T07:18:40;12.20;99.90
21582;DHT22;10952;50.836;4.348;2023-03-29T07:21:06;12.30;99.90
21582;DHT22;10952;50.836;4.348;2023-03-29T07:23:32;12.30;99.90
21582;DHT22;10952;50.836;4.348;2023-03-29T07:25:58;12.30;99.90
21582;DHT22;10952;50.836;4.348;2023-03-29T07:28:24;12.30;99.90
21582;DHT22;10952;50.836;4.348;2023-03-29T07:30:50;12.40;99.90
21582;DHT22;10952;50.836;4.348;2023-03-29T07:33:16;12.40;99.90
21582;DHT22;10952;50.836;4.348;2023-03-29T07:35:42;12.50;99.90
21582;DHT22;10952;50.836;4.348;2023-03-29T07:38:09;12.60;99.90
21582;DHT22;10952;50.836;4.348;2023-03-29T07:40:35;12.50;99.90
21582;DHT22;10952;50.836;4.348;2023-03-29T07:43:00;12.40;99.90
21582;DHT22;10952;50.836;4.348;2023-03-29T07:45:31;12.40;99.90
21582;DHT22;10952;50.836;4.348;2023-03-29T07:47:58;12.40;99.90
21582;DHT22;10952;50.836;4.348;2023-03-29T07:50:24;12.50;99.90
21582;DHT22;10952;50.836;4.348;2023-03-29T07:52:50;12.40;99.90
21582;DHT22;10952;50.836;4.348;2023-03-29T07:55:16;12.50;99.90
21582;DHT22;10952;50.836;4.348;2023-03-29T07:57:42;12.60;99.90
21582;DHT22;10952;50.836;4.348;2023-03-29T08:00:10;12.70;99.90
21582;DHT22;10952;50.836;4.348;2023-03-29T08:02:47;12.80;99.90
21582;DHT22;10952;50.836;4.348;2023-03-29T08:05:15;12.80;99.90
21582;DHT22;10952;50.836;4.348;2023-03-29T08:07:42;12.80;99.90
21582;DHT22;10952;50.836;4.348;2023-03-29T08:10:10;12.80;99.90
21582;DHT22;10952;50.836;4.348;2023-03-29T08:12:36;12.90;99.90
21582;DHT22;10952;50.836;4.348;2023-03-29T08:15:03;12.90;99.90
21582;DHT22;10952;50.836;4.348;2023-03-29T08:17:30;13.00;99.90
21582;DHT22;10952;50.836;4.348;2023-03-29T08:19:55;13.00;99.90
21582;DHT22;10952;50.836;4.348;2023-03-29T08:22:21;13.20;99.90
21582;DHT22;10952;50.836;4.348;2023-03-29T08:24:47;13.30;99.90
21582;DHT22;10952;50.836;4.348;2023-03-29T08:27:12;13.50;99.90
21582;DHT22;10952;50.836;4.348;2023-03-29T08:29:38;13.80;99.90
21582;DHT22;10952;50.836;4.348;2023-03-29T08:32:04;13.90;99.90
21582;DHT22;10952;50.836;4.348;2023-03-29T08:34:30;14.20;99.90
21582;DHT22;10952;50.836;4.348;2023-03-29T08:36:57;14.20;99.90
21582;DHT22;10952;50.836;4.348;2023-03-29T08:39:23;14.10;99.90
21582;DHT22;10952;50.836;4.348;2023-03-29T08:41:56;14.00;99.90
21582;DHT22;10952;50.836;4.348;2023-03-29T08:44:45;14.20;99.90
21582;DHT22;10952;50.836;4.348;2023-03-29T08:49:56;13.80;99.90
21582;DHT22;10952;50.836;4.348;2023-03-29T08:52:44;13.60;99.90
21582;DHT22;10952;50.836;4.348;2023-03-29T08:57:50;13.80;99.90
21582;DHT22;10952;50.836;4.348;2023-03-29T09:03:10;14.20;99.90
21582;DHT22;10952;50.836;4.348;2023-03-29T09:05:47;14.20;99.90
21582;DHT22;10952;50.836;4.348;2023-03-29T09:08:15;14.10;99.90
21582;DHT22;10952;50.836;4.348;2023-03-29T09:10:58;14.00;99.90
21582;DHT22;10952;50.836;4.348;2023-03-29T09:16:19;14.20;99.90
21582;DHT22;10952;50.836;4.348;2023-03-29T09:19:11;14.20;99.90
21582;DHT22;10952;50.836;4.348;2023-03-29T09:27:04;14.80;99.90
21582;DHT22;10952;50.836;4.348;2023-03-29T09:29:51;14.90;99.90
21582;DHT22;10952;50.836;4.348;2023-03-29T09:32:23;15.30;99.90
21582;DHT22;10952;50.836;4.348;2023-03-29T09:35:20;15.60;99.90
21582;DHT22;10952;50.836;4.348;2023-03-29T09:37:48;15.80;99.90
21582;DHT22;10952;50.836;4.348;2023-03-29T09:40:19;15.60;99.90
21582;DHT22;10952;50.836;4.348;2023-03-29T09:42:49;15.30;99.90
21582;DHT22;10952;50.836;4.348;2023-03-29T09:45:15;15.40;99.90
21582;DHT22;10952;50.836;4.348;2023-03-29T09:52:47;15.90;99.90
21582;DHT22;10952;50.836;4.348;2023-03-29T09:55:15;16.10;99.90
21582;DHT22;10952;50.836;4.348;2023-03-29T09:57:42;16.00;99.90
21582;DHT22;10952;50.836;4.348;2023-03-29T10:00:10;15.80;99.90
21582;DHT22;10952;50.836;4.348;2023-03-29T10:02:36;15.90;99.90
21582;DHT22;10952;50.836;4.348;2023-03-29T10:05:06;16.10;99.90
21582;DHT22;10952;50.836;4.348;2023-03-29T10:07:45;16.30;99.90
21582;DHT22;10952;50.836;4.348;2023-03-29T10:10:20;16.30;99.90
21582;DHT22;10952;50.836;4.348;2023-03-29T10:12:51;16.40;99.90
21582;DHT22;10952;50.836;4.348;2023-03-29T10:15:19;16.60;99.90
21582;DHT22;10952;50.836;4.348;2023-03-29T10:17:45;16.70;99.90
21582;DHT22;10952;50.836;4.348;2023-03-29T10:20:17;16.70;99.90
21582;DHT22;10952;50.836;4.348;2023-03-29T10:22:48;16.50;99.90
21582;DHT22;10952;50.836;4.348;2023-03-29T10:25:18;16.70;99.90
21582;DHT22;10952;50.836;4.348;2023-03-29T10:27:45;16.90;99.90
21582;DHT22;10952;50.836;4.348;2023-03-29T10:30:20;17.10;99.90
21582;DHT22;10952;50.836;4.348;2023-03-29T10:32:53;17.30;99.90
21582;DHT22;10952;50.836;4.348;2023-03-29T10:37:49;17.80;99.90
21582;DHT22;10952;50.836;4.348;2023-03-29T10:40:33;17.70;99.90
21582;DHT22;10952;50.836;4.348;2023-03-29T10:43:25;17.50;99.90
21582;DHT22;10952;50.836;4.348;2023-03-29T10:45:53;17.30;99.90
21582;DHT22;10952;50.836;4.348;2023-03-29T10:48:26;17.10;99.90
21582;DHT22;10952;50.836;4.348;2023-03-29T10:50:56;17.00;99.90
21582;DHT22;10952;50.836;4.348;2023-03-29T10:53:26;16.90;99.90
21582;DHT22;10952;50.836;4.348;2023-03-29T11:02:15;16.70;99.90
21582;DHT22;10952;50.836;4.348;2023-03-29T11:04:53;16.60;99.90
21582;DHT22;10952;50.836;4.348;2023-03-29T11:10:26;17.10;99.90
21582;DHT22;10952;50.836;4.348;2023-03-29T11:38:52;18.00;99.90
21582;DHT22;10952;50.836;4.348;2023-03-29T11:46:17;17.60;99.90
21582;DHT22;10952;50.836;4.348;2023-03-29T11:54:48;17.50;99.90
21582;DHT22;10952;50.836;4.348;2023-03-29T11:56:58;17.90;99.90
21582;DHT22;10952;50.836;4.348;2023-03-29T11:59:33;18.30;99.90
21582;DHT22;10952;50.836;4.348;2023-03-29T12:04:56;18.40;99.90
21582;DHT22;10952;50.836;4.348;2023-03-29T12:10:04;18.50;99.90
21582;DHT22;10952;50.836;4.348;2023-03-29T12:12:41;18.30;99.90
21582;DHT22;10952;50.836;4.348;2023-03-29T12:15:09;18.40;99.90
21582;DHT22;10952;50.836;4.348;2023-03-29T12:17:44;18.40;99.90
21582;DHT22;10952;50.836;4.348;2023-03-29T12:20:19;18.30;99.90
21582;DHT22;10952;50.836;4.348;2023-03-29T12:22:48;18.50;99.90
21582;DHT22;10952;50.836;4.348;2023-03-29T12:25:18;18.80;99.90
21582;DHT22;10952;50.836;4.348;2023-03-29T12:27:49;18.80;99.90
21582;DHT22;10952;50.836;4.348;2023-03-29T12:30:26;18.90;99.90
21582;DHT22;10952;50.836;4.348;2023-03-29T12:36:05;18.60;99.90
21582;DHT22;10952;50.836;4.348;2023-03-29T12:38:34;18.60;99.90
21582;DHT22;10952;50.836;4.348;2023-03-29T12:41:19;18.70;99.90
21582;DHT22;10952;50.836;4.348;2023-03-29T12:43:46;18.70;99.90
21582;DHT22;10952;50.836;4.348;2023-03-29T12:46:17;18.50;99.90
21582;DHT22;10952;50.836;4.348;2023-03-29T12:48:45;18.50;99.90
21582;DHT22;10952;50.836;4.348;2023-03-29T12:51:12;18.40;99.90
21582;DHT22;10952;50.836;4.348;2023-03-29T12:56:20;18.50;99.90
21582;DHT22;10952;50.836;4.348;2023-03-29T12:59:23;18.50;99.90
21582;DHT22;10952;50.836;4.348;2023-03-29T13:02:01;18.50;99.90
21582;DHT22;10952;50.836;4.348;2023-03-29T13:07:14;19.00;99.90
21582;DHT22;10952;50.836;4.348;2023-03-29T13:09:51;19.20;99.90
21582;DHT22;10952;50.836;4.348;2023-03-29T13:12:40;19.50;99.90
21582;DHT22;10952;50.836;4.348;2023-03-29T13:15:22;19.60;99.90
21582;DHT22;10952;50.836;4.348;2023-03-29T13:18:22;19.50;99.90
21582;DHT22;10952;50.836;4.348;2023-03-29T13:37:48;19.20;99.90
21582;DHT22;10952;50.836;4.348;2023-03-29T13:46:02;19.50;99.90
21582;DHT22;10952;50.836;4.348;2023-03-29T13:51:18;19.30;99.90
21582;DHT22;10952;50.836;4.348;2023-03-29T13:53:53;19.30;99.90
21582;DHT22;10952;50.836;4.348;2023-03-29T13:56:37;19.50;99.90
21582;DHT22;10952;50.836;4.348;2023-03-29T13:59:16;19.50;99.90
21582;DHT22;10952;50.836;4.348;2023-03-29T14:01:53;19.40;99.90
21582;DHT22;10952;50.836;4.348;2023-03-29T14:04:27;19.40;99.90
21582;DHT22;10952;50.836;4.348;2023-03-29T14:06:55;19.60;99.90
21582;DHT22;10952;50.836;4.348;2023-03-29T14:09:32;19.60;99.90
21582;DHT22;10952;50.836;4.348;2023-03-29T14:11:59;19.50;99.90
21582;DHT22;10952;50.836;4.348;2023-03-29T14:14:27;19.60;99.90
21582;DHT22;10952;50.836;4.348;2023-03-29T14:16:54;19.60;99.90
21582;DHT22;10952;50.836;4.348;2023-03-29T14:21:51;19.80;99.90
21582;DHT22;10952;50.836;4.348;2023-03-29T14:24:21;19.80;99.90
21582;DHT22;10952;50.836;4.348;2023-03-29T14:26:47;19.90;99.90
21582;DHT22;10952;50.836;4.348;2023-03-29T14:29:13;19.80;99.90
21582;DHT22;10952;50.836;4.348;2023-03-29T14:31:40;19.80;99.90
21582;DHT22;10952;50.836;4.348;2023-03-29T14:34:12;19.80;99.90
21582;DHT22;10952;50.836;4.348;2023-03-29T14:36:38;19.80;99.90
21582;DHT22;10952;50.836;4.348;2023-03-29T14:41:35;19.60;99.90
21582;DHT22;10952;50.836;4.348;2023-03-29T14:44:02;19.40;99.90
21582;DHT22;10952;50.836;4.348;2023-03-29T14:46:29;19.20;99.90
21582;DHT22;10952;50.836;4.348;2023-03-29T14:48:56;19.20;99.90
21582;DHT22;10952;50.836;4.348;2023-03-29T14:51:23;19.10;99.90
21582;DHT22;10952;50.836;4.348;2023-03-29T14:53:59;19.00;99.90
21582;DHT22;10952;50.836;4.348;2023-03-29T14:56:25;19.00;99.90
21582;DHT22;10952;50.836;4.348;2023-03-29T14:58:55;19.00;99.90
21582;DHT22;10952;50.836;4.348;2023-03-29T15:01:23;18.90;99.90
21582;DHT22;10952;50.836;4.348;2023-03-29T15:04:03;18.90;99.90
21582;DHT22;10952;50.836;4.348;2023-03-29T15:06:29;19.00;99.90
21582;DHT22;10952;50.836;4.348;2023-03-29T15:08:57;19.10;99.90
21582;DHT22;10952;50.836;4.348;2023-03-29T15:11:26;19.10;99.90
21582;DHT22;10952;50.836;4.348;2023-03-29T15:14:07;19.20;99.90
21582;DHT22;10952;50.836;4.348;2023-03-29T15:16:39;19.10;99.90
21582;DHT22;10952;50.836;4.348;2023-03-29T15:19:09;19.10;99.90
21582;DHT22;10952;50.836;4.348;2023-03-29T15:21:37;19.00;99.90
21582;DHT22;10952;50.836;4.348;2023-03-29T15:24:03;19.00;99.90
21582;DHT22;10952;50.836;4.348;2023-03-29T15:26:32;19.20;99.90
21582;DHT22;10952;50.836;4.348;2023-03-29T15:31:36;19.50;99.90
21582;DHT22;10952;50.836;4.348;2023-03-29T15:34:04;19.60;99.90
21582;DHT22;10952;50.836;4.348;2023-03-29T15:36:30;19.60;99.90
21582;DHT22;10952;50.836;4.348;2023-03-29T15:38:56;19.60;99.90
21582;DHT22;10952;50.836;4.348;2023-03-29T15:41:22;19.50;99.90
21582;DHT22;10952;50.836;4.348;2023-03-29T15:43:48;19.60;99.90
21582;DHT22;10952;50.836;4.348;2023-03-29T15:46:13;19.60;99.90
21582;DHT22;10952;50.836;4.348;2023-03-29T15:48:41;19.60;99.90
21582;DHT22;10952;50.836;4.348;2023-03-29T15:51:11;19.40;99.90
21582;DHT22;10952;50.836;4.348;2023-03-29T15:53:37;19.30;99.90
21582;DHT22;10952;50.836;4.348;2023-03-29T15:56:05;19.30;99.90
21582;DHT22;10952;50.836;4.348;2023-03-29T15:58:33;19.30;99.90
21582;DHT22;10952;50.836;4.348;2023-03-29T16:01:24;19.30;99.90
21582;DHT22;10952;50.836;4.348;2023-03-29T16:03:58;19.30;99.90
21582;DHT22;10952;50.836;4.348;2023-03-29T16:06:23;19.20;99.90
21582;DHT22;10952;50.836;4.348;2023-03-29T16:08:49;19.20;99.90
21582;DHT22;10952;50.836;4.348;2023-03-29T16:11:15;19.20;99.90
21582;DHT22;10952;50.836;4.348;2023-03-29T16:13:41;19.20;99.90
21582;DHT22;10952;50.836;4.348;2023-03-29T16:16:11;19.20;99.90
21582;DHT22;10952;50.836;4.348;2023-03-29T16:18:37;19.20;99.90
21582;DHT22;10952;50.836;4.348;2023-03-29T16:21:02;19.10;99.90
21582;DHT22;10952;50.836;4.348;2023-03-29T16:23:29;19.00;99.90
21582;DHT22;10952;50.836;4.348;2023-03-29T16:25:55;18.90;99.90
21582;DHT22;10952;50.836;4.348;2023-03-29T16:28:23;18.90;99.90
21582;DHT22;10952;50.836;4.348;2023-03-29T16:30:49;18.90;99.90
21582;DHT22;10952;50.836;4.348;2023-03-29T16:33:15;19.00;99.90
21582;DHT22;10952;50.836;4.348;2023-03-29T16:35:40;19.00;99.90
21582;DHT22;10952;50.836;4.348;2023-03-29T16:38:07;19.00;99.90
21582;DHT22;10952;50.836;4.348;2023-03-29T16:40:34;18.90;99.90
21582;DHT22;10952;50.836;4.348;2023-03-29T16:42:59;18.90;99.90
21582;DHT22;10952;50.836;4.348;2023-03-29T16:45:25;18.80;99.90
21582;DHT22;10952;50.836;4.348;2023-03-29T16:47:51;18.80;99.90
21582;DHT22;10952;50.836;4.348;2023-03-29T16:50:18;18.80;99.90
21582;DHT22;10952;50.836;4.348;2023-03-29T16:52:44;18.70;99.90
21582;DHT22;10952;50.836;4.348;2023-03-29T16:55:12;18.70;99.90
21582;DHT22;10952;50.836;4.348;2023-03-29T16:57:38;18.60;99.90
21582;DHT22;10952;50.836;4.348;2023-03-29T17:00:06;18.70;99.90
21582;DHT22;10952;50.836;4.348;2023-03-29T17:02:32;18.60;99.90
21582;DHT22;10952;50.836;4.348;2023-03-29T17:04:58;18.60;99.90
21582;DHT22;10952;50.836;4.348;2023-03-29T17:07:23;18.80;99.90
21582;DHT22;10952;50.836;4.348;2023-03-29T17:09:50;18.70;99.90
21582;DHT22;10952;50.836;4.348;2023-03-29T17:12:16;18.70;99.90
21582;DHT22;10952;50.836;4.348;2023-03-29T17:14:42;18.60;99.90
21582;DHT22;10952;50.836;4.348;2023-03-29T17:17:08;18.50;99.90
21582;DHT22;10952;50.836;4.348;2023-03-29T17:19:33;18.50;99.90
21582;DHT22;10952;50.836;4.348;2023-03-29T17:21:59;18.40;99.90
21582;DHT22;10952;50.836;4.348;2023-03-29T17:24:25;18.40;99.90
21582;DHT22;10952;50.836;4.348;2023-03-29T17:26:50;18.40;99.90
21582;DHT22;10952;50.836;4.348;2023-03-29T17:29:16;18.30;99.90
21582;DHT22;10952;50.836;4.348;2023-03-29T17:31:41;18.20;99.90
21582;DHT22;10952;50.836;4.348;2023-03-29T17:34:13;18.20;99.90
21582;DHT22;10952;50.836;4.348;2023-03-29T17:36:38;18.20;99.90
21582;DHT22;10952;50.836;4.348;2023-03-29T17:39:06;18.20;99.90
21582;DHT22;10952;50.836;4.348;2023-03-29T17:41:32;18.20;99.90
21582;DHT22;10952;50.836;4.348;2023-03-29T17:43:58;18.10;99.90
21582;DHT22;10952;50.836;4.348;2023-03-29T17:46:23;18.00;99.90
21582;DHT22;10952;50.836;4.348;2023-03-29T17:48:50;18.00;99.90